createdAt,value
2023-04-22T00:01:17.161Z,11.6
2023-04-22T00:04:17.569Z,11.6
2023-04-22T00:07:17.157Z,11.6
2023-04-22T00:10:17.161Z,11.6
2023-04-22T00:13:17.152Z,11.6
2023-04-22T00:16:17.191Z,11.6
2023-04-22T00:22:17.157Z,11.6
2023-04-22T00:25:17.151Z,11.6
2023-04-22T00:28:17.154Z,11.5
2023-04-22T00:31:17.218Z,11.5
2023-04-22T00:34:17.149Z,11.5
2023-04-22T00:37:17.154Z,11.5
2023-04-22T00:40:17.203Z,11.5
2023-04-22T00:43:17.153Z,11.5
2023-04-22T00:46:17.200Z,11.5
2023-04-22T00:49:17.155Z,11.5
2023-04-22T00:52:17.147Z,11.5
2023-04-22T00:55:17.148Z,11.5
2023-04-22T00:58:17.145Z,11.4
2023-04-22T01:01:17.160Z,11.4
2023-04-22T01:04:17.250Z,11.4
2023-04-22T01:10:17.146Z,11.4
2023-04-22T01:13:17.167Z,11.4
2023-04-22T01:16:17.182Z,11.4
2023-04-22T01:19:17.148Z,11.4
2023-04-22T01:22:17.143Z,11.4
2023-04-22T01:25:17.146Z,11.4
2023-04-22T01:28:17.142Z,11.4
2023-04-22T01:31:17.140Z,11.4
2023-04-22T01:34:17.143Z,11.4
2023-04-22T01:37:17.146Z,11.4
2023-04-22T01:40:17.132Z,11.4
2023-04-22T01:46:17.226Z,11.3
2023-04-22T01:49:17.152Z,11.3
2023-04-22T01:52:17.142Z,11.3
2023-04-22T01:55:17.157Z,11.3
2023-04-22T01:58:17.138Z,11.3
2023-04-22T02:01:17.182Z,11.3
2023-04-22T02:04:17.302Z,11.3
2023-04-22T02:07:17.199Z,11.3
2023-04-22T02:10:17.187Z,11.3
2023-04-22T02:13:17.186Z,11.3
2023-04-22T02:16:17.255Z,11.3
2023-04-22T02:19:17.173Z,11.3
2023-04-22T02:22:17.168Z,11.3
2023-04-22T02:25:17.168Z,11.3
2023-04-22T02:28:17.178Z,11.3
2023-04-22T02:31:17.212Z,11.3
2023-04-22T02:34:17.163Z,11.3
2023-04-22T02:37:17.171Z,11.3
2023-04-22T02:40:17.169Z,11.2
2023-04-22T02:43:17.180Z,11.2
2023-04-22T02:46:17.199Z,11.2
2023-04-22T02:49:17.168Z,11.2
2023-04-22T02:52:17.161Z,11.2
2023-04-22T02:55:17.154Z,11.2
2023-04-22T02:58:17.157Z,11.2
2023-04-22T03:01:17.202Z,11.2
2023-04-22T03:04:17.299Z,11.2
2023-04-22T03:07:17.157Z,11.2
2023-04-22T03:10:17.159Z,11.3
2023-04-22T03:13:17.168Z,11.3
2023-04-22T03:16:17.175Z,11.3
2023-04-22T03:19:17.165Z,11.3
2023-04-22T03:22:17.154Z,11.3
2023-04-22T03:25:17.184Z,11.3
2023-04-22T03:28:17.147Z,11.3
2023-04-22T03:31:17.148Z,11.3
2023-04-22T03:34:17.167Z,11.3
2023-04-22T03:37:17.148Z,11.3
2023-04-22T03:40:17.147Z,11.3
2023-04-22T03:43:17.149Z,11.3
2023-04-22T03:46:17.190Z,11.3
2023-04-22T03:49:17.145Z,11.3
2023-04-22T03:52:17.146Z,11.3
2023-04-22T03:55:17.142Z,11.3
2023-04-22T03:58:17.142Z,11.3
2023-04-22T04:01:17.147Z,11.3
2023-04-22T04:04:17.447Z,11.3
2023-04-22T04:07:17.148Z,11.3
2023-04-22T04:10:17.136Z,11.3
2023-04-22T04:13:17.139Z,11.2
2023-04-22T04:16:17.181Z,11.2
2023-04-22T04:19:17.137Z,11.2
2023-04-22T04:22:17.142Z,11.2
2023-04-22T04:25:17.131Z,11.2
2023-04-22T04:28:17.138Z,11.2
2023-04-22T04:31:17.203Z,11.2
2023-04-22T04:34:17.137Z,11.1
2023-04-22T04:37:17.132Z,11.1
2023-04-22T04:40:17.127Z,11.1
2023-04-22T04:43:17.117Z,11.1
2023-04-22T04:46:17.146Z,11
2023-04-22T04:49:17.119Z,11
2023-04-22T04:52:17.124Z,11
2023-04-22T04:55:17.139Z,11
2023-04-22T04:58:17.128Z,11
2023-04-22T05:01:17.236Z,10.9
2023-04-22T05:04:17.288Z,10.9
2023-04-22T05:07:17.125Z,10.9
2023-04-22T05:10:17.128Z,10.9
2023-04-22T05:13:17.113Z,10.9
2023-04-22T05:16:17.118Z,10.9
2023-04-22T05:19:17.121Z,10.9
2023-04-22T05:22:17.112Z,10.9
2023-04-22T05:25:17.139Z,10.9
2023-04-22T05:28:17.106Z,10.9
2023-04-22T05:31:17.121Z,10.9
2023-04-22T05:34:17.112Z,10.9
2023-04-22T05:37:17.165Z,10.9
2023-04-22T05:40:17.113Z,10.9
2023-04-22T05:43:17.141Z,10.9
2023-04-22T05:46:17.176Z,10.9
2023-04-22T05:49:17.124Z,10.9
2023-04-22T05:52:17.113Z,10.9
2023-04-22T05:55:17.120Z,10.9
2023-04-22T05:58:17.098Z,10.9
2023-04-22T06:04:17.349Z,10.9
2023-04-22T06:10:17.106Z,10.9
2023-04-22T06:13:17.092Z,10.9
2023-04-22T06:16:17.099Z,10.9
2023-04-22T06:19:17.092Z,10.9
2023-04-22T06:25:17.102Z,11
2023-04-22T06:28:17.100Z,11
2023-04-22T06:31:18.765Z,11
2023-04-22T06:37:17.101Z,11
2023-04-22T06:40:17.095Z,11.1
2023-04-22T06:43:17.103Z,11.1
2023-04-22T06:46:17.096Z,11.1
2023-04-22T06:49:17.094Z,11.2
2023-04-22T06:55:17.098Z,11.3
2023-04-22T06:58:17.091Z,11.3
2023-04-22T07:01:17.113Z,11.4
2023-04-22T07:04:17.106Z,11.5
2023-04-22T07:07:17.077Z,11.6
2023-04-22T07:10:17.076Z,11.6
2023-04-22T07:13:17.066Z,11.7
2023-04-22T07:16:17.117Z,11.7
2023-04-22T07:19:17.074Z,11.9
2023-04-22T07:22:17.080Z,12
2023-04-22T07:25:17.069Z,12.1
2023-04-22T07:28:17.069Z,12.1
2023-04-22T07:31:17.108Z,12.2
2023-04-22T07:34:17.065Z,12.3
2023-04-22T07:37:17.083Z,12.3
2023-04-22T07:40:17.069Z,12.4
2023-04-22T07:43:17.080Z,12.5
2023-04-22T07:46:17.186Z,12.6
2023-04-22T07:49:17.062Z,12.7
2023-04-22T07:52:17.068Z,12.7
2023-04-22T07:55:17.065Z,12.7
2023-04-22T07:58:17.053Z,12.8
2023-04-22T08:01:18.699Z,12.9
2023-04-22T08:04:17.395Z,13
2023-04-22T08:07:30.693Z,13
2023-04-22T08:10:17.053Z,13.1
2023-04-22T08:13:18.260Z,13.2
2023-04-22T08:16:17.062Z,13.2
2023-04-22T08:19:17.061Z,13.3
2023-04-22T08:22:17.058Z,13.3
2023-04-22T08:25:17.059Z,13.4
2023-04-22T08:28:17.049Z,13.5
2023-04-22T08:31:17.100Z,13.5
2023-04-22T08:34:17.042Z,13.6
2023-04-22T08:37:17.054Z,13.6
2023-04-22T08:40:17.043Z,13.7
2023-04-22T08:43:17.045Z,13.7
2023-04-22T08:46:17.067Z,13.9
2023-04-22T08:49:17.033Z,13.9
2023-04-22T08:52:17.051Z,14
2023-04-22T08:55:17.037Z,14.1
2023-04-22T08:58:17.036Z,14.2
2023-04-22T09:01:17.048Z,14.3
2023-04-22T09:04:17.149Z,14.4
2023-04-22T09:07:17.031Z,14.5
2023-04-22T09:10:17.034Z,14.6
2023-04-22T09:13:17.036Z,14.7
2023-04-22T09:16:17.090Z,14.8
2023-04-22T09:19:17.043Z,15
2023-04-22T09:22:17.030Z,15.1
2023-04-22T09:25:17.027Z,15.2
2023-04-22T09:28:17.033Z,15.3
2023-04-22T09:31:17.074Z,15.5
2023-04-22T09:34:17.027Z,15.5
2023-04-22T09:40:17.039Z,15.7
2023-04-22T09:43:17.024Z,15.8
2023-04-22T09:46:17.052Z,15.9
2023-04-22T09:49:17.036Z,15.9
2023-04-22T09:52:17.036Z,16
2023-04-22T09:55:17.022Z,16
2023-04-22T09:58:17.011Z,16.1
2023-04-22T10:01:17.031Z,16.1
2023-04-22T10:04:17.041Z,16.2
2023-04-22T10:07:17.021Z,16.4
2023-04-22T10:10:17.027Z,16.6
2023-04-22T10:13:17.017Z,16.8
2023-04-22T10:16:17.026Z,16.8
2023-04-22T10:19:17.007Z,17
2023-04-22T10:22:17.023Z,17.1
2023-04-22T10:25:17.014Z,17.1
2023-04-22T10:31:17.053Z,17.2
2023-04-22T10:34:17.003Z,17.3
2023-04-22T10:37:17.000Z,17.4
2023-04-22T10:40:17.051Z,17.5
2023-04-22T10:43:17.001Z,17.5
2023-04-22T10:46:17.018Z,17.6
2023-04-22T10:49:17.093Z,17.7
2023-04-22T10:52:17.002Z,17.8
2023-04-22T10:55:17.004Z,17.9
2023-04-22T10:58:17.095Z,18
2023-04-22T11:01:17.012Z,18.1
2023-04-22T11:04:17.088Z,18.2
2023-04-22T11:07:17.339Z,18.3
2023-04-22T11:10:17.004Z,18.5
2023-04-22T11:13:17.003Z,18.6
2023-04-22T11:16:17.079Z,18.7
2023-04-22T11:19:18.048Z,18.8
2023-04-22T11:22:16.994Z,18.8
2023-04-22T11:25:17.038Z,18.9
2023-04-22T11:28:17.001Z,18.9
2023-04-22T11:34:16.999Z,19.1
2023-04-22T11:37:17.000Z,19.2
2023-04-22T11:40:28.681Z,19.3
2023-04-22T11:43:16.989Z,19.3
2023-04-22T11:46:17.013Z,19.4
2023-04-22T11:49:17.088Z,19.5
2023-04-22T11:52:17.056Z,19.5
2023-04-22T11:55:16.995Z,19.6
2023-04-22T11:58:17.036Z,19.6
2023-04-22T12:01:16.991Z,19.7
2023-04-22T12:04:17.005Z,19.8
2023-04-22T12:07:16.987Z,19.8
2023-04-22T12:10:16.995Z,19.9
2023-04-22T12:13:16.996Z,19.9
2023-04-22T12:16:16.988Z,20
2023-04-22T12:19:16.991Z,20
2023-04-22T12:22:16.985Z,20
2023-04-22T12:25:16.982Z,20.1
2023-04-22T12:28:16.988Z,20.1
2023-04-22T12:31:17.026Z,20.2
2023-04-22T12:34:16.976Z,20.2
2023-04-22T12:37:17.001Z,20.2
2023-04-22T12:40:16.984Z,20.2
2023-04-22T12:43:16.971Z,20.3
2023-04-22T12:46:17.032Z,20.4
2023-04-22T12:52:16.964Z,20.5
2023-04-22T12:55:16.981Z,20.5
2023-04-22T12:58:16.973Z,20.6
2023-04-22T13:01:16.984Z,20.6
2023-04-22T13:04:17.037Z,20.7
2023-04-22T13:07:16.965Z,20.7
2023-04-22T13:10:16.967Z,20.7
2023-04-22T13:13:18.770Z,20.7
2023-04-22T13:16:16.978Z,20.7
2023-04-22T13:19:16.981Z,20.7
2023-04-22T13:22:16.972Z,20.7
2023-04-22T13:25:16.970Z,20.6
2023-04-22T13:28:16.974Z,20.5
2023-04-22T13:31:16.977Z,20.5
2023-04-22T13:34:16.970Z,20.4
2023-04-22T13:37:16.973Z,20.3
2023-04-22T13:40:16.971Z,20.2
2023-04-22T13:43:16.981Z,20.2
2023-04-22T13:46:17.048Z,20.1
2023-04-22T13:49:16.971Z,19.9
2023-04-22T13:52:16.965Z,19.9
2023-04-22T13:55:16.975Z,19.8
2023-04-22T13:58:16.963Z,19.7
2023-04-22T14:04:16.970Z,19.5
2023-04-22T14:07:16.949Z,19.4
2023-04-22T14:10:16.962Z,19.3
2023-04-22T14:13:16.956Z,19.2
2023-04-22T14:16:16.961Z,19.2
2023-04-22T14:19:16.955Z,19.1
2023-04-22T14:22:16.941Z,19
2023-04-22T14:25:16.962Z,18.9
2023-04-22T14:28:16.955Z,18.9
2023-04-22T14:31:17.009Z,18.9
2023-04-22T14:34:16.950Z,18.8
2023-04-22T14:37:16.949Z,18.7
2023-04-22T14:40:16.952Z,18.7
2023-04-22T14:43:16.940Z,18.6
2023-04-22T14:46:16.967Z,18.6
2023-04-22T14:49:16.946Z,18.6
2023-04-22T14:52:16.957Z,18.5
2023-04-22T14:55:22.986Z,18.5
2023-04-22T14:58:16.942Z,18.4
2023-04-22T15:04:17.087Z,18.3
2023-04-22T15:07:16.937Z,18.3
2023-04-22T15:10:16.954Z,18.2
2023-04-22T15:13:16.927Z,18.2
2023-04-22T15:16:16.947Z,18.2
2023-04-22T15:19:16.922Z,18.2
2023-04-22T15:22:16.929Z,18.2
2023-04-22T15:25:18.130Z,18.2
2023-04-22T15:28:16.928Z,18.2
2023-04-22T15:31:16.932Z,18.3
2023-04-22T15:34:16.931Z,18.3
2023-04-22T15:37:16.933Z,18.3
2023-04-22T15:40:16.926Z,18.3
2023-04-22T15:43:16.919Z,18.3
2023-04-22T15:46:16.954Z,18.4
2023-04-22T15:49:16.923Z,18.3
2023-04-22T15:52:16.926Z,18.3
2023-04-22T15:55:16.941Z,18.3
2023-04-22T15:58:16.922Z,18.3
2023-04-22T16:01:19.162Z,18.3
2023-04-22T16:04:17.143Z,18.3
2023-04-22T16:07:16.922Z,18.2
2023-04-22T16:10:16.923Z,18.2
2023-04-22T16:13:16.940Z,18.2
2023-04-22T16:16:16.974Z,18.1
2023-04-22T16:19:16.918Z,18.1
2023-04-22T16:22:16.918Z,18
2023-04-22T16:25:16.914Z,18
2023-04-22T16:28:16.912Z,17.9
2023-04-22T16:34:16.919Z,17.9
2023-04-22T16:37:16.925Z,17.8
2023-04-22T16:40:16.935Z,17.8
2023-04-22T16:43:16.919Z,17.8
2023-04-22T16:46:16.965Z,17.7
2023-04-22T16:49:16.928Z,17.7
2023-04-22T16:52:16.974Z,17.7
2023-04-22T16:55:16.916Z,17.7
2023-04-22T16:58:16.924Z,17.7
2023-04-22T17:01:16.926Z,17.6
2023-04-22T17:04:17.064Z,17.6
2023-04-22T17:07:16.922Z,17.6
2023-04-22T17:10:16.916Z,17.6
2023-04-22T17:13:16.934Z,17.5
2023-04-22T17:19:16.925Z,17.5
2023-04-22T17:22:16.918Z,17.5
2023-04-22T17:25:16.912Z,17.4
2023-04-22T17:28:16.916Z,17.4
2023-04-22T17:31:16.921Z,17.4
2023-04-22T17:34:16.907Z,17.4
2023-04-22T17:37:16.908Z,17.3
2023-04-22T17:40:16.919Z,17.3
2023-04-22T17:43:16.911Z,17.2
2023-04-22T17:46:16.931Z,17.2
2023-04-22T17:49:16.900Z,17.2
2023-04-22T17:52:16.900Z,17.1
2023-04-22T17:55:16.904Z,17.1
2023-04-22T17:58:16.905Z,17.1
2023-04-22T18:01:16.961Z,17
2023-04-22T18:04:17.030Z,17
2023-04-22T18:07:16.906Z,17
2023-04-22T18:10:16.902Z,16.9
2023-04-22T18:13:16.937Z,16.9
2023-04-22T18:16:16.929Z,16.9
2023-04-22T18:19:16.902Z,16.9
2023-04-22T18:22:16.903Z,16.8
2023-04-22T18:25:16.899Z,16.8
2023-04-22T18:28:16.884Z,16.7
2023-04-22T18:31:16.895Z,16.7
2023-04-22T18:34:16.894Z,16.7
2023-04-22T18:37:16.883Z,16.7
2023-04-22T18:40:16.901Z,16.6
2023-04-22T18:43:16.882Z,16.6
2023-04-22T18:46:16.917Z,16.6
2023-04-22T18:49:16.876Z,16.6
2023-04-22T18:52:16.879Z,16.5
2023-04-22T18:55:16.893Z,16.5
2023-04-22T18:58:16.885Z,16.4
2023-04-22T19:01:16.928Z,16.4
2023-04-22T19:04:16.902Z,16.4
2023-04-22T19:07:16.894Z,16.4
2023-04-22T19:10:16.878Z,16.3
2023-04-22T19:13:28.445Z,16.2
2023-04-22T19:19:16.868Z,16.1
2023-04-22T19:22:16.866Z,16.1
2023-04-22T19:25:16.862Z,16
2023-04-22T19:28:16.867Z,16
2023-04-22T19:31:16.955Z,16
2023-04-22T19:34:16.876Z,15.9
2023-04-22T19:37:16.866Z,15.9
2023-04-22T19:40:18.654Z,15.9
2023-04-22T19:43:16.933Z,15.8
2023-04-22T19:46:16.882Z,15.8
2023-04-22T19:49:16.902Z,15.8
2023-04-22T19:52:16.902Z,15.8
2023-04-22T19:55:16.888Z,15.7
2023-04-22T19:58:16.881Z,15.7
2023-04-22T20:01:16.912Z,15.7
2023-04-22T20:04:17.007Z,15.6
2023-04-22T20:07:16.876Z,15.6
2023-04-22T20:10:16.877Z,15.6
2023-04-22T20:13:16.888Z,15.6
2023-04-22T20:16:16.929Z,15.5
2023-04-22T20:19:16.897Z,15.5
2023-04-22T20:22:16.890Z,15.5
2023-04-22T20:25:16.887Z,15.5
2023-04-22T20:28:16.894Z,15.4
2023-04-22T20:31:16.916Z,15.4
2023-04-22T20:34:16.887Z,15.4
2023-04-22T20:37:16.890Z,15.4
2023-04-22T20:40:16.907Z,15.3
2023-04-22T20:43:16.888Z,15.3
2023-04-22T20:46:17.000Z,15.3
2023-04-22T20:49:16.886Z,15.2
2023-04-22T20:52:16.911Z,15.2
2023-04-22T20:55:17.006Z,15.2
2023-04-22T20:58:16.873Z,15.2
2023-04-22T21:01:16.891Z,15.1
2023-04-22T21:04:17.090Z,15.1
2023-04-22T21:07:16.876Z,15.1
2023-04-22T21:10:16.872Z,15
2023-04-22T21:13:16.880Z,15
2023-04-22T21:16:16.883Z,15
2023-04-22T21:19:16.871Z,14.9
2023-04-22T21:22:16.863Z,14.9
2023-04-22T21:25:16.879Z,14.9
2023-04-22T21:28:16.860Z,14.9
2023-04-22T21:31:16.871Z,14.9
2023-04-22T21:34:18.914Z,14.8
2023-04-22T21:37:17.452Z,14.8
2023-04-22T21:40:17.451Z,14.8
2023-04-22T21:43:17.469Z,14.7
2023-04-22T21:46:17.487Z,14.7
2023-04-22T21:49:17.453Z,14.7
2023-04-22T21:52:17.453Z,14.6
2023-04-22T21:55:17.456Z,14.6
2023-04-22T21:58:17.465Z,14.6
2023-04-22T22:01:17.496Z,14.6
2023-04-22T22:04:17.552Z,14.6
2023-04-22T22:07:17.452Z,14.6
2023-04-22T22:10:17.448Z,14.5
2023-04-22T22:13:17.442Z,14.5
2023-04-22T22:16:17.459Z,14.5
2023-04-22T22:19:17.446Z,14.5
2023-04-22T22:22:17.437Z,14.4
2023-04-22T22:25:17.436Z,14.4
2023-04-22T22:28:17.462Z,14.4
2023-04-22T22:31:17.509Z,14.3
2023-04-22T22:34:17.451Z,14.3
2023-04-22T22:37:17.450Z,14.3
2023-04-22T22:40:17.443Z,14.3
2023-04-22T22:43:17.452Z,14.3
2023-04-22T22:46:17.487Z,14.2
2023-04-22T22:49:17.452Z,14.2
2023-04-22T22:52:17.441Z,14.2
2023-04-22T22:55:17.433Z,14.2
2023-04-22T22:58:17.438Z,14.2
2023-04-22T23:01:17.530Z,14.1
2023-04-22T23:04:17.885Z,14.1
2023-04-22T23:07:17.435Z,14.1
2023-04-22T23:10:17.450Z,14.1
2023-04-22T23:13:17.449Z,14
2023-04-22T23:16:17.453Z,14
2023-04-22T23:19:17.421Z,14
2023-04-22T23:22:17.420Z,14
2023-04-22T23:25:17.427Z,14
2023-04-22T23:28:17.525Z,13.9
2023-04-22T23:31:17.698Z,13.9
2023-04-22T23:34:17.430Z,13.9
2023-04-22T23:37:17.454Z,13.9
2023-04-22T23:40:17.431Z,13.9
2023-04-22T23:43:17.442Z,13.8
2023-04-22T23:46:18.744Z,13.8
2023-04-22T23:49:17.447Z,13.8
2023-04-22T23:52:17.437Z,13.8
2023-04-22T23:55:17.443Z,13.8
2023-04-22T23:58:17.438Z,13.7
